createdAt,value
2018-04-23T00:01:41.604Z,8.87
2018-04-23T00:04:10.492Z,8.17
2018-04-23T00:06:39.408Z,7.60
2018-04-23T00:09:07.554Z,7.13
2018-04-23T00:11:36.448Z,7.57
2018-04-23T00:14:05.372Z,9.03
2018-04-23T00:16:33.553Z,8.00
2018-04-23T00:19:01.738Z,8.80
2018-04-23T00:21:29.896Z,8.47
2018-04-23T00:23:58.037Z,8.13
2018-04-23T00:26:26.150Z,7.57
2018-04-23T00:28:54.321Z,8.10
2018-04-23T00:31:22.468Z,7.30
2018-04-23T00:33:50.585Z,8.47
2018-04-23T00:36:18.730Z,7.80
2018-04-23T00:38:46.904Z,9.90
2018-04-23T00:41:15.045Z,8.90
2018-04-23T00:43:43.196Z,8.40
2018-04-23T00:46:12.138Z,9.67
2018-04-23T00:48:40.302Z,9.20
2018-04-23T00:51:08.432Z,9.77
2018-04-23T00:53:40.342Z,10.83
2018-04-23T00:56:08.508Z,9.20
2018-04-23T00:58:36.658Z,9.93
2018-04-23T01:01:04.806Z,9.80
2018-04-23T01:03:32.936Z,9.50
2018-04-23T01:06:01.094Z,9.30
2018-04-23T01:08:29.282Z,9.87
2018-04-23T01:10:57.475Z,10.13
2018-04-23T01:13:25.598Z,10.33
2018-04-23T01:15:53.782Z,10.17
2018-04-23T01:18:21.912Z,9.87
2018-04-23T01:20:50.801Z,9.70
2018-04-23T01:23:18.975Z,10.47
2018-04-23T01:25:47.865Z,10.80
2018-04-23T01:28:16.763Z,11.23
2018-04-23T01:30:45.699Z,9.90
2018-04-23T01:33:13.836Z,11.03
2018-04-23T01:35:42.761Z,10.70
2018-04-23T01:38:10.914Z,10.73
2018-04-23T01:40:39.066Z,10.43
2018-04-23T01:43:07.293Z,10.43
2018-04-23T01:45:35.417Z,10.63
2018-04-23T01:48:04.334Z,10.50
2018-04-23T01:50:32.485Z,10.83
2018-04-23T01:53:00.610Z,11.10
2018-04-23T01:55:28.738Z,11.30
2018-04-23T01:57:56.909Z,11.07
2018-04-23T02:00:25.073Z,10.70
2018-04-23T02:02:53.201Z,10.67
2018-04-23T02:05:21.340Z,11.07
2018-04-23T02:07:49.489Z,12.13
2018-04-23T02:10:17.670Z,12.33
2018-04-23T02:12:45.898Z,12.40
2018-04-23T02:15:14.081Z,13.27
2018-04-23T02:17:42.981Z,12.00
2018-04-23T02:20:11.872Z,12.80
2018-04-23T02:22:40.822Z,12.77
2018-04-23T02:25:08.981Z,11.83
2018-04-23T02:27:37.135Z,12.50
2018-04-23T02:30:05.345Z,11.53
2018-04-23T02:32:33.495Z,12.30
2018-04-23T02:35:01.630Z,11.83
2018-04-23T02:37:30.575Z,12.70
2018-04-23T02:39:58.764Z,12.90
2018-04-23T02:42:26.889Z,13.00
2018-04-23T02:44:55.042Z,12.93
2018-04-23T02:47:23.203Z,12.53
2018-04-23T02:49:52.121Z,12.50
2018-04-23T02:52:20.298Z,12.20
2018-04-23T02:54:48.453Z,13.67
2018-04-23T02:57:17.375Z,13.00
2018-04-23T02:59:45.570Z,12.47
2018-04-23T03:02:13.734Z,13.60
2018-04-23T03:04:42.991Z,13.80
2018-04-23T03:07:11.902Z,13.77
2018-04-23T03:09:40.022Z,13.83
2018-04-23T03:12:08.145Z,13.80
2018-04-23T03:14:36.288Z,13.67
2018-04-23T03:17:05.197Z,14.37
2018-04-23T03:19:33.321Z,13.67
2018-04-23T03:22:01.506Z,15.17
2018-04-23T03:24:29.634Z,15.13
2018-04-23T03:26:57.753Z,14.93
2018-04-23T03:29:25.917Z,15.80
2018-04-23T03:31:54.078Z,15.00
2018-04-23T03:34:22.277Z,15.90
2018-04-23T03:36:51.164Z,14.97
2018-04-23T03:39:19.311Z,17.70
2018-04-23T03:41:47.498Z,16.37
2018-04-23T03:44:15.659Z,17.50
2018-04-23T03:46:43.818Z,16.80
2018-04-23T03:49:11.965Z,17.63
2018-04-23T03:51:40.090Z,16.77
2018-04-23T03:54:08.244Z,16.30
2018-04-23T03:56:36.365Z,17.13
2018-04-23T03:59:04.520Z,14.07
2018-04-23T04:01:33.480Z,13.30
2018-04-23T04:04:01.608Z,14.37
2018-04-23T04:06:29.767Z,11.67
2018-04-23T04:08:57.950Z,11.97
2018-04-23T04:11:26.133Z,11.47
2018-04-23T04:14:12.186Z,11.20
2018-04-23T04:16:54.165Z,12.50
2018-04-23T04:19:22.321Z,12.23
2018-04-23T04:21:50.458Z,10.77
2018-04-23T04:24:18.607Z,11.70
2018-04-23T04:26:46.761Z,10.70
2018-04-23T04:29:14.906Z,11.77
2018-04-23T04:31:43.082Z,10.23
2018-04-23T04:34:11.242Z,9.70
2018-04-23T04:36:39.399Z,11.07
2018-04-23T04:39:07.560Z,12.20
2018-04-23T04:41:35.708Z,10.27
2018-04-23T04:44:04.654Z,10.47
2018-04-23T04:46:32.824Z,10.70
2018-04-23T04:49:00.961Z,9.87
2018-04-23T04:51:29.848Z,10.70
2018-04-23T04:53:58.799Z,9.77
2018-04-23T04:56:26.930Z,10.33
2018-04-23T04:58:55.078Z,10.00
2018-04-23T05:01:24.026Z,10.33
2018-04-23T05:03:52.154Z,9.40
2018-04-23T05:06:21.043Z,9.70
2018-04-23T05:08:49.949Z,10.67
2018-04-23T05:11:18.077Z,9.60
2018-04-23T05:13:46.255Z,9.90
2018-04-23T05:16:15.146Z,10.50
2018-04-23T05:18:43.264Z,10.33
2018-04-23T05:21:11.454Z,9.47
2018-04-23T05:23:40.522Z,8.93
2018-04-23T05:26:08.642Z,8.97
2018-04-23T05:28:36.790Z,10.00
2018-04-23T05:31:04.919Z,9.73
2018-04-23T05:33:33.815Z,9.50
2018-04-23T05:36:01.995Z,10.30
2018-04-23T05:38:30.149Z,9.03
2018-04-23T05:40:59.042Z,9.60
2018-04-23T05:43:27.985Z,8.63
2018-04-23T05:45:56.133Z,9.70
2018-04-23T05:48:24.283Z,9.80
2018-04-23T05:50:52.439Z,9.53
2018-04-23T05:53:21.386Z,9.27
2018-04-23T05:55:49.545Z,10.80
2018-04-23T05:58:17.702Z,9.27
2018-04-23T06:00:45.896Z,9.30
2018-04-23T06:03:14.094Z,9.27
2018-04-23T06:05:42.238Z,9.60
2018-04-23T06:08:10.406Z,9.03
2018-04-23T06:10:38.536Z,9.90
2018-04-23T06:13:07.469Z,8.80
2018-04-23T06:15:35.589Z,9.90
2018-04-23T06:18:03.744Z,8.30
2018-04-23T06:20:31.900Z,8.37
2018-04-23T06:23:00.035Z,8.90
2018-04-23T06:25:28.186Z,7.90
2018-04-23T06:27:57.162Z,8.47
2018-04-23T06:30:25.292Z,8.83
2018-04-23T06:32:53.457Z,7.83
2018-04-23T06:35:21.653Z,7.70
2018-04-23T06:37:49.793Z,7.60
2018-04-23T06:40:18.002Z,7.50
2018-04-23T06:42:46.201Z,7.53
2018-04-23T06:45:14.362Z,7.80
2018-04-23T06:47:42.492Z,7.90
2018-04-23T06:50:10.629Z,7.30
2018-04-23T06:52:39.588Z,6.57
2018-04-23T06:55:07.739Z,7.23
2018-04-23T06:57:35.908Z,7.50
2018-04-23T07:00:04.050Z,7.20
2018-04-23T07:02:32.959Z,6.47
2018-04-23T07:05:01.225Z,6.33
2018-04-23T07:07:29.296Z,6.40
2018-04-23T07:09:58.203Z,5.70
2018-04-23T07:12:26.430Z,6.90
2018-04-23T07:14:54.590Z,6.63
2018-04-23T07:17:22.763Z,6.63
2018-04-23T07:19:50.963Z,6.20
2018-04-23T07:22:19.863Z,5.57
2018-04-23T07:24:48.822Z,6.03
2018-04-23T07:27:16.991Z,5.20
2018-04-23T07:29:45.162Z,5.43
2018-04-23T07:32:13.303Z,5.27
2018-04-23T07:34:41.513Z,6.30
2018-04-23T07:37:09.712Z,7.07
2018-04-23T07:39:38.621Z,5.30
2018-04-23T07:42:06.806Z,5.67
2018-04-23T07:44:34.978Z,5.73
2018-04-23T07:47:03.202Z,6.40
2018-04-23T07:49:31.343Z,5.80
2018-04-23T07:51:59.482Z,6.97
2018-04-23T07:54:27.645Z,7.13
2018-04-23T07:56:56.572Z,7.17
2018-04-23T07:59:24.763Z,6.03
2018-04-23T08:01:52.945Z,6.90
2018-04-23T08:04:21.111Z,6.40
2018-04-23T08:06:49.304Z,6.30
2018-04-23T08:09:18.251Z,6.00
2018-04-23T08:11:46.400Z,5.70
2018-04-23T08:14:15.319Z,6.00
2018-04-23T08:16:43.555Z,7.27
2018-04-23T08:19:12.471Z,5.60
2018-04-23T08:21:47.533Z,6.87
2018-04-23T08:24:15.660Z,6.93
2018-04-23T08:26:44.588Z,6.07
2018-04-23T08:29:12.804Z,6.43
2018-04-23T08:31:41.744Z,5.73
2018-04-23T08:34:09.878Z,6.07
2018-04-23T08:36:38.790Z,5.80
2018-04-23T08:39:06.974Z,5.70
2018-04-23T08:41:35.172Z,7.33
2018-04-23T08:44:03.296Z,5.80
2018-04-23T08:46:32.200Z,5.13
2018-04-23T08:49:00.360Z,5.40
2018-04-23T08:51:28.533Z,5.90
2018-04-23T08:53:56.660Z,4.53
2018-04-23T08:56:24.798Z,4.93
2018-04-23T08:58:52.990Z,4.43
2018-04-23T09:01:21.133Z,4.40
2018-04-23T09:03:49.281Z,4.83
2018-04-23T09:06:18.250Z,3.80
2018-04-23T09:08:46.365Z,4.90
2018-04-23T09:11:14.514Z,5.43
2018-04-23T09:13:43.412Z,4.67
2018-04-23T09:16:12.311Z,4.13
2018-04-23T09:18:41.217Z,4.50
2018-04-23T09:21:09.365Z,4.60
2018-04-23T09:23:38.306Z,5.20
2018-04-23T09:26:06.776Z,4.30
2018-04-23T09:28:34.897Z,4.63
2018-04-23T09:31:03.829Z,5.83
2018-04-23T09:33:32.031Z,4.20
2018-04-23T09:36:00.144Z,4.17
2018-04-23T09:38:29.066Z,4.60
2018-04-23T09:40:57.236Z,5.90
2018-04-23T09:43:25.373Z,6.60
2018-04-23T09:45:54.322Z,5.73
2018-04-23T09:48:22.474Z,4.80
2018-04-23T09:50:50.597Z,5.83
2018-04-23T09:53:18.729Z,6.37
2018-04-23T09:55:46.845Z,6.90
2018-04-23T09:58:14.986Z,6.63
2018-04-23T10:00:44.056Z,9.13
2018-04-23T10:03:12.191Z,8.37
2018-04-23T10:05:41.110Z,9.70
2018-04-23T10:08:09.287Z,9.80
2018-04-23T10:10:37.408Z,9.80
2018-04-23T10:13:05.543Z,10.23
2018-04-23T10:15:33.701Z,10.77
2018-04-23T10:18:01.866Z,11.90
2018-04-23T10:20:30.024Z,12.53
2018-04-23T10:22:58.945Z,13.67
2018-04-23T10:25:27.105Z,14.70
2018-04-23T10:27:55.246Z,16.27
2018-04-23T10:30:24.132Z,15.03
2018-04-23T10:32:52.271Z,15.83
2018-04-23T10:35:20.426Z,14.47
2018-04-23T10:37:48.590Z,12.27
2018-04-23T10:40:16.753Z,12.57
2018-04-23T10:42:44.905Z,15.50
2018-04-23T10:45:13.835Z,12.63
2018-04-23T10:47:42.000Z,13.20
2018-04-23T10:50:10.154Z,13.23
2018-04-23T10:52:38.312Z,12.13
2018-04-23T10:55:07.235Z,10.50
2018-04-23T10:57:35.397Z,11.77
2018-04-23T11:00:03.554Z,10.20
2018-04-23T11:02:32.441Z,9.80
2018-04-23T11:05:01.359Z,10.20
2018-04-23T11:07:29.554Z,9.60
2018-04-23T11:09:57.677Z,9.67
2018-04-23T11:12:26.589Z,9.90
2018-04-23T11:14:54.734Z,9.43
2018-04-23T11:17:23.692Z,8.60
2018-04-23T11:19:51.842Z,8.60
2018-04-23T11:22:19.986Z,8.20
2018-04-23T11:24:48.114Z,6.97
2018-04-23T11:27:16.269Z,5.27
2018-04-23T11:29:44.412Z,6.03
2018-04-23T11:32:12.558Z,5.93
2018-04-23T11:34:41.481Z,5.67
2018-04-23T11:37:09.660Z,5.37
2018-04-23T11:39:37.818Z,5.47
2018-04-23T11:42:05.941Z,5.10
2018-04-23T11:44:34.080Z,4.73
2018-04-23T11:47:02.197Z,4.50
2018-04-23T11:49:31.124Z,5.67
2018-04-23T11:51:59.338Z,4.20
2018-04-23T11:54:27.522Z,4.07
2018-04-23T11:56:55.645Z,4.77
2018-04-23T11:59:23.821Z,4.73
2018-04-23T12:01:51.940Z,4.60
2018-04-23T12:04:20.091Z,5.30
2018-04-23T12:06:48.270Z,4.83
2018-04-23T12:09:16.426Z,4.30
2018-04-23T12:11:44.582Z,5.50
2018-04-23T12:14:12.767Z,5.20
2018-04-23T12:16:40.886Z,5.37
2018-04-23T12:19:10.000Z,6.00
2018-04-23T12:21:39.012Z,5.50
2018-04-23T12:24:07.107Z,5.23
2018-04-23T12:26:35.274Z,6.37
2018-04-23T12:29:03.451Z,4.47
2018-04-23T12:31:31.585Z,5.47
2018-04-23T12:34:00.525Z,5.07
2018-04-23T12:36:28.652Z,5.53
2018-04-23T12:38:56.779Z,6.63
2018-04-23T12:41:24.925Z,6.37
2018-04-23T12:43:53.073Z,5.70
2018-04-23T12:46:21.257Z,5.97
2018-04-23T12:48:49.392Z,6.37
2018-04-23T12:51:17.517Z,6.97
2018-04-23T12:53:45.730Z,5.80
2018-04-23T12:56:13.861Z,7.23
2018-04-23T12:58:42.041Z,6.53
2018-04-23T13:01:10.199Z,6.10
2018-04-23T13:03:38.379Z,6.60
2018-04-23T13:06:06.534Z,6.30
2018-04-23T13:08:34.669Z,6.10
2018-04-23T13:11:02.830Z,5.93
2018-04-23T13:13:30.989Z,5.83
2018-04-23T13:15:59.126Z,5.63
2018-04-23T13:18:27.272Z,6.47
2018-04-23T13:20:56.198Z,6.60
2018-04-23T13:23:24.382Z,5.93
2018-04-23T13:25:52.512Z,6.67
2018-04-23T13:28:21.463Z,7.57
2018-04-23T13:30:49.622Z,7.27
2018-04-23T13:33:17.805Z,7.57
2018-04-23T13:35:45.923Z,7.57
2018-04-23T13:38:14.817Z,7.73
2018-04-23T13:40:42.973Z,8.17
2018-04-23T13:43:11.868Z,8.43
2018-04-23T13:45:40.858Z,8.63
2018-04-23T13:48:09.773Z,8.50
2018-04-23T13:50:37.902Z,10.57
2018-04-23T13:53:06.051Z,8.03
2018-04-23T13:55:34.239Z,7.87
2018-04-23T13:58:03.180Z,7.37
2018-04-23T14:00:31.305Z,7.20
2018-04-23T14:02:59.533Z,7.17
2018-04-23T14:05:27.669Z,6.87
2018-04-23T14:07:56.557Z,7.10
2018-04-23T14:10:25.501Z,7.43
2018-04-23T14:12:53.641Z,7.47
2018-04-23T14:15:21.760Z,6.93
2018-04-23T14:17:49.936Z,6.70
2018-04-23T14:20:18.178Z,7.70
2018-04-23T14:22:46.322Z,6.30
2018-04-23T14:25:15.278Z,6.07
2018-04-23T14:27:43.459Z,6.57
2018-04-23T14:30:11.641Z,6.67
2018-04-23T14:32:40.639Z,6.70
2018-04-23T14:35:09.594Z,6.70
2018-04-23T14:37:37.796Z,5.70
2018-04-23T14:40:06.077Z,5.57
2018-04-23T14:42:34.239Z,5.47
2018-04-23T14:45:02.406Z,6.23
2018-04-23T14:47:30.738Z,6.43
2018-04-23T14:49:59.037Z,5.80
2018-04-23T14:52:27.229Z,6.00
2018-04-23T14:54:55.437Z,5.50
2018-04-23T14:57:24.419Z,6.10
2018-04-23T14:59:53.599Z,5.10
2018-04-23T15:02:21.839Z,6.53
2018-04-23T15:04:50.037Z,5.13
2018-04-23T15:07:18.237Z,4.63
2018-04-23T15:09:47.359Z,5.43
2018-04-23T15:12:15.542Z,5.30
2018-04-23T15:14:43.683Z,4.70
2018-04-23T15:17:12.821Z,4.37
2018-04-23T15:19:41.062Z,4.90
2018-04-23T15:22:09.399Z,4.57
2018-04-23T15:24:37.788Z,4.10
2018-04-23T15:27:06.741Z,3.47
2018-04-23T15:29:34.976Z,3.67
2018-04-23T15:32:03.977Z,3.70
2018-04-23T15:34:32.161Z,4.83
2018-04-23T15:37:00.304Z,4.27
2018-04-23T15:39:28.515Z,3.63
2018-04-23T15:41:56.701Z,4.10
2018-04-23T15:44:24.980Z,3.90
2018-04-23T15:46:53.298Z,3.63
2018-04-23T15:49:22.276Z,3.73
2018-04-23T15:51:50.478Z,3.70
2018-04-23T15:54:19.474Z,4.03
2018-04-23T15:56:47.996Z,3.87
2018-04-23T15:59:16.259Z,4.03
2018-04-23T16:01:44.496Z,3.80
2018-04-23T16:04:13.479Z,3.30
2018-04-23T16:06:42.540Z,3.00
2018-04-23T16:09:10.901Z,3.30
2018-04-23T16:11:39.162Z,3.93
2018-04-23T16:14:07.417Z,3.10
2018-04-23T16:16:35.599Z,2.70
2018-04-23T16:19:03.821Z,2.80
2018-04-23T16:21:32.013Z,3.67
2018-04-23T16:24:01.180Z,3.00
2018-04-23T16:26:29.442Z,3.57
2018-04-23T16:28:57.659Z,2.90
2018-04-23T16:31:25.853Z,3.50
2018-04-23T16:33:54.061Z,3.77
2018-04-23T16:36:22.293Z,4.13
2018-04-23T16:38:50.459Z,3.00
2018-04-23T16:41:19.439Z,3.37
2018-04-23T16:43:47.863Z,2.87
2018-04-23T16:46:16.140Z,3.00
2018-04-23T16:51:43.043Z,3.10
2018-04-23T16:54:11.704Z,3.90
2018-04-23T16:56:40.523Z,3.47
2018-04-23T16:59:09.694Z,3.20
2018-04-23T17:01:40.240Z,3.73
2018-04-23T17:04:09.868Z,2.90
2018-04-23T17:06:39.646Z,4.30
2018-04-23T17:09:08.266Z,3.43
2018-04-23T17:11:38.605Z,3.13
2018-04-23T17:14:07.939Z,3.33
2018-04-23T17:16:37.104Z,3.70
2018-04-23T17:19:06.905Z,4.17
2018-04-23T17:21:35.405Z,4.10
2018-04-23T17:24:03.617Z,3.90
2018-04-23T17:26:32.327Z,3.90
2018-04-23T17:29:01.303Z,3.63
2018-04-23T17:31:29.661Z,3.80
2018-04-23T17:33:57.938Z,3.47
2018-04-23T17:36:26.164Z,3.47
2018-04-23T17:38:55.244Z,3.70
2018-04-23T17:41:23.704Z,3.17
2018-04-23T17:43:52.181Z,5.30
2018-04-23T17:46:20.464Z,4.03
2018-04-23T17:48:48.944Z,3.77
2018-04-23T17:51:17.146Z,3.63
2018-04-23T17:53:46.421Z,4.90
2018-04-23T17:56:15.724Z,4.17
2018-04-23T17:58:44.252Z,3.77
2018-04-23T18:01:12.705Z,4.23
2018-04-23T18:03:41.664Z,3.60
2018-04-23T18:06:10.483Z,3.60
2018-04-23T18:08:39.125Z,3.67
2018-04-23T18:11:08.012Z,4.23
2018-04-23T18:13:37.505Z,4.03
2018-04-23T18:16:06.769Z,4.07
2018-04-23T18:18:36.163Z,4.03
2018-04-23T18:21:17.166Z,4.00
2018-04-23T18:23:47.925Z,4.80
2018-04-23T18:26:18.444Z,4.20
2018-04-23T18:28:49.975Z,4.73
2018-04-23T18:31:20.452Z,4.53
2018-04-23T18:33:51.210Z,4.37
2018-04-23T18:36:20.647Z,4.83
2018-04-23T18:38:51.315Z,4.43
2018-04-23T18:41:20.306Z,6.07
2018-04-23T18:43:50.487Z,6.30
2018-04-23T18:46:19.271Z,6.37
2018-04-23T18:48:48.027Z,7.40
2018-04-23T18:51:16.708Z,6.97
2018-04-23T18:53:45.619Z,6.93
2018-04-23T18:56:14.024Z,7.07
2018-04-23T18:58:42.405Z,7.10
2018-04-23T19:01:10.707Z,6.43
2018-04-23T19:03:39.124Z,7.20
2018-04-23T19:06:07.459Z,6.97
2018-04-23T19:08:35.806Z,7.63
2018-04-23T19:11:04.249Z,9.27
2018-04-23T19:13:32.682Z,8.83
2018-04-23T19:16:00.964Z,9.70
2018-04-23T19:18:29.222Z,8.40
2018-04-23T19:20:57.702Z,8.50
2018-04-23T19:23:26.055Z,9.20
2018-04-23T19:25:54.304Z,9.40
2018-04-23T19:28:23.360Z,9.27
2018-04-23T19:30:51.566Z,8.83
2018-04-23T19:33:19.840Z,9.43
2018-04-23T19:35:48.854Z,9.90
2018-04-23T19:38:17.086Z,11.13
2018-04-23T19:40:45.397Z,9.50
2018-04-23T19:43:13.661Z,10.27
2018-04-23T19:45:41.923Z,10.40
2018-04-23T19:48:10.161Z,10.40
2018-04-23T19:50:38.439Z,10.70
2018-04-23T19:53:06.586Z,9.23
2018-04-23T19:55:34.794Z,10.17
2018-04-23T19:58:03.115Z,7.87
2018-04-23T20:00:32.106Z,6.90
2018-04-23T20:03:00.286Z,6.47
2018-04-23T20:05:29.255Z,7.20
2018-04-23T20:07:58.646Z,7.00
2018-04-23T20:10:26.873Z,6.23
2018-04-23T20:12:55.034Z,6.70
2018-04-23T20:15:23.211Z,5.97
2018-04-23T20:17:52.102Z,6.80
2018-04-23T20:20:20.220Z,6.57
2018-04-23T20:22:48.403Z,7.20
2018-04-23T20:25:16.540Z,6.17
2018-04-23T20:27:44.660Z,7.17
2018-04-23T20:30:13.631Z,7.17
2018-04-23T20:32:41.777Z,7.47
2018-04-23T20:35:09.932Z,7.30
2018-04-23T20:37:38.101Z,6.93
2018-04-23T20:40:06.257Z,6.77
2018-04-23T20:42:35.177Z,8.20
2018-04-23T20:45:03.338Z,7.10
2018-04-23T20:47:31.465Z,7.47
2018-04-23T20:49:59.594Z,6.50
2018-04-23T20:52:27.779Z,7.30
2018-04-23T20:54:55.962Z,7.10
2018-04-23T20:57:24.136Z,7.50
2018-04-23T20:59:52.253Z,8.00
2018-04-23T21:02:21.140Z,7.70
2018-04-23T21:04:50.049Z,6.87
2018-04-23T21:07:18.217Z,6.60
2018-04-23T21:09:46.345Z,7.40
2018-04-23T21:15:24.256Z,8.37
2018-04-23T21:17:52.413Z,6.83
2018-04-23T21:20:21.441Z,7.30
2018-04-23T21:22:49.621Z,7.10
2018-04-23T21:25:17.793Z,7.90
2018-04-23T21:27:45.928Z,8.13
2018-04-23T21:30:14.108Z,8.40
2018-04-23T21:32:42.254Z,7.40
2018-04-23T21:35:11.164Z,8.30
2018-04-23T21:37:39.349Z,8.90
2018-04-23T21:40:07.482Z,8.00
2018-04-23T21:42:35.596Z,8.80
2018-04-23T21:45:04.184Z,7.80
2018-04-23T21:47:32.334Z,8.37
2018-04-23T21:50:00.456Z,7.60
2018-04-23T21:52:28.590Z,8.17
2018-04-23T21:54:56.737Z,8.00
2018-04-23T21:57:25.686Z,8.00
2018-04-23T21:59:53.829Z,8.27
2018-04-23T22:02:21.988Z,7.30
2018-04-23T22:04:51.115Z,7.80
2018-04-23T22:07:19.289Z,9.07
2018-04-23T22:09:47.413Z,8.83
2018-04-23T22:12:16.346Z,8.83
2018-04-23T22:14:44.497Z,8.57
2018-04-23T22:17:12.662Z,8.20
2018-04-23T22:19:40.846Z,8.00
2018-04-23T22:22:08.967Z,8.03
2018-04-23T22:24:37.142Z,8.00
2018-04-23T22:27:05.292Z,7.67
2018-04-23T22:29:33.725Z,9.03
2018-04-23T22:32:02.740Z,8.67
2018-04-23T22:34:30.826Z,8.57
2018-04-23T22:36:59.716Z,7.73
2018-04-23T22:39:27.890Z,7.80
2018-04-23T22:41:56.013Z,8.50
2018-04-23T22:44:24.921Z,9.00
2018-04-23T22:46:53.049Z,9.00
2018-04-23T22:49:21.213Z,8.27
2018-04-23T22:51:49.363Z,8.60
2018-04-23T22:54:17.487Z,7.67
2018-04-23T22:56:45.685Z,9.53
2018-04-23T22:59:14.369Z,7.50
2018-04-23T23:01:42.528Z,7.97
2018-04-23T23:04:11.537Z,7.93
2018-04-23T23:06:39.660Z,7.60
2018-04-23T23:09:07.800Z,7.33
2018-04-23T23:11:35.973Z,7.80
2018-04-23T23:14:04.128Z,8.30
2018-04-23T23:16:32.321Z,7.20
2018-04-23T23:19:00.459Z,7.10
2018-04-23T23:21:28.683Z,6.40
2018-04-23T23:23:56.954Z,7.20
2018-04-23T23:26:25.116Z,7.37
2018-04-23T23:28:53.383Z,6.70
2018-04-23T23:31:22.273Z,6.87
2018-04-23T23:33:50.480Z,7.30
2018-04-23T23:36:18.649Z,6.70
2018-04-23T23:38:46.804Z,7.10
2018-04-23T23:41:14.917Z,6.93
2018-04-23T23:43:43.091Z,7.03
2018-04-23T23:46:12.008Z,6.60
2018-04-23T23:48:40.153Z,7.30
2018-04-23T23:51:09.106Z,7.73
2018-04-23T23:53:37.238Z,7.83
2018-04-23T23:56:05.390Z,7.37
2018-04-23T23:58:34.304Z,8.50
